createdAt,value
2023-04-29T00:02:48.071Z,100
2023-04-29T00:22:00.676Z,100
2023-04-29T00:41:10.447Z,100
2023-04-29T01:00:22.088Z,100
2023-04-29T01:19:32.932Z,98.6
2023-04-29T01:19:47.954Z,98.7
2023-04-29T01:38:46.209Z,98.1
2023-04-29T01:57:58.067Z,97.6
2023-04-29T02:17:08.707Z,100
2023-04-29T02:36:19.784Z,100
2023-04-29T02:55:32.271Z,100
2023-04-29T03:14:44.146Z,100
2023-04-29T03:33:57.090Z,100
2023-04-29T03:53:10.255Z,100
2023-04-29T04:12:20.881Z,100
2023-04-29T04:31:33.844Z,100
2023-04-29T04:50:44.446Z,100
2023-04-29T05:09:56.783Z,100
2023-04-29T05:29:08.307Z,100
2023-04-29T05:48:20.297Z,100
2023-04-29T06:07:35.620Z,100
2023-04-29T06:07:51.357Z,100
2023-04-29T06:26:54.730Z,100
2023-04-29T06:45:58.442Z,100
2023-04-29T07:05:09.814Z,100
2023-04-29T07:24:25.240Z,100
2023-04-29T07:43:32.394Z,100
2023-04-29T08:02:40.325Z,100
2023-04-29T08:21:50.936Z,100
2023-04-29T08:41:06.769Z,95.4
2023-04-29T09:00:18.786Z,92.9
2023-04-29T09:19:27.393Z,96.1
2023-04-29T09:38:42.996Z,97.5
2023-04-29T09:57:52.754Z,100
2023-04-29T10:17:05.963Z,99.9
2023-04-29T10:36:20.213Z,97.3
2023-04-29T10:55:31.668Z,93.8
2023-04-29T11:14:41.981Z,97.1
2023-04-29T11:33:53.247Z,97.8
2023-04-29T11:53:10.261Z,95.8
2023-04-29T12:12:18.105Z,94.2
2023-04-29T12:31:32.703Z,92.2
2023-04-29T12:50:45.943Z,86.9
2023-04-29T13:09:59.375Z,82.6
2023-04-29T13:29:10.056Z,82.6
2023-04-29T13:49:26.228Z,81.7
2023-04-29T14:08:28.823Z,81.6
2023-04-29T14:27:38.141Z,82.8
2023-04-29T14:46:51.327Z,79.9
2023-04-29T15:06:05.520Z,78.5
2023-04-29T15:25:17.774Z,79.2
2023-04-29T15:44:28.316Z,79.6
2023-04-29T16:03:39.737Z,77
2023-04-29T16:22:51.843Z,75.4
2023-04-29T16:42:05.423Z,75.8
2023-04-29T17:01:14.191Z,75.9
2023-04-29T17:20:24.206Z,77.3
2023-04-29T17:39:37.780Z,78.8
2023-04-29T17:58:48.025Z,78.6
2023-04-29T18:17:59.616Z,80.3
2023-04-29T18:37:10.488Z,83.2
2023-04-29T18:56:21.387Z,84.2
2023-04-29T19:15:34.703Z,86.5
2023-04-29T19:34:45.853Z,88.8
2023-04-29T19:53:56.193Z,89.3
2023-04-29T20:13:08.007Z,89.7
2023-04-29T20:32:20.184Z,92.3
2023-04-29T20:51:33.392Z,91.6
2023-04-29T21:10:45.768Z,92.9
2023-04-29T21:29:56.237Z,95
2023-04-29T21:49:06.271Z,95.7
2023-04-29T22:08:16.401Z,97.7
2023-04-29T22:27:30.019Z,100
2023-04-29T22:46:37.129Z,100
2023-04-29T23:05:48.125Z,100
2023-04-29T23:25:00.162Z,100
2023-04-29T23:44:10.523Z,100
